Champion — WCZ7631 — position and weather

sailwx.info

Track history (hours):
 
Tides and Currents Weather Stations Pressure Air Temp Water Temp Dewpoint Dewpoint Depression Visibility Wind Speed Wind Dir Waves Ship Positions

Champion

Owner: MC CULLEY MARINE SERVICES INC, FORT PIERCE, FL. More information available from US FCC via Universal Licensing System and Coast Guard Vessel Documentation Center.

Last reported at 2018-Jun-16 15:24 UTC. Time now 2018-Jun-18 02:14 UTC.
Position N 27°05' W 079°59'.

Length 20 m; draft 1.7 m.

Type: Towing. MMSI: 367005250.

Date/timePositionNaut miles runAvg speedWind from/ knotsBaromVisibWave heightAir tempDewpointWater temp
2018-Jun-16 15:24N 27°05' W 079°59'511.6
2018-Jun-16 14:58N 27°00' W 079°58'511.9
2018-Jun-16 14:30N 26°55' W 079°57'3111.8
2018-Jun-16 11:55N 26°24' W 079°58'511.8
2018-Jun-16 11:30N 26°20' W 079°58'611.8
2018-Jun-16 11:00N 26°14' W 079°58'611.6
2018-Jun-16 10:30N 26°08' W 079°59'611.7
2018-Jun-16 10:00N 26°02' W 080°01'611.9
2018-Jun-16 09:30N 25°56' W 080°01'611.9
2018-Jun-16 08:59N 25°50' W 080°02'510.2
2018-Jun-16 08:30N 25°46' W 080°04'4 8.6
2018-Jun-16 08:00N 25°42' W 080°06'5 8.9
2018-Jun-16 07:30N 25°37' W 080°07'4 8.8
2018-Jun-16 07:00N 25°33' W 080°08'  
2018-Jun-08 07:13N 25°22' W 080°12'3 8.3
2018-Jun-08 06:54N 25°25' W 080°11'3 8.1
2018-Jun-08 06:30N 25°28' W 080°10'4 8.1
2018-Jun-08 06:00N 25°31' W 080°08'4 8.2
2018-Jun-08 05:30N 25°35' W 080°07'4 8.1
2018-Jun-08 05:00N 25°39' W 080°07'4 7.8
2018-Jun-08 04:30N 25°43' W 080°06'4 7.8
2018-Jun-08 04:00N 25°47' W 080°06'4 7.8
2018-Jun-08 03:30N 25°51' W 080°06'4 7.7
2018-Jun-08 03:00N 25°55' W 080°06'4 7.9
2018-Jun-08 02:30N 25°59' W 080°05'4 7.8
2018-Jun-08 02:00N 26°03' W 080°05'4 7.9
2018-Jun-08 01:30N 26°07' W 080°05'4 7.3
2018-Jun-08 01:00N 26°10' W 080°05'4 7.4
2018-Jun-08 00:30N 26°14' W 080°04'4 7.6
2018-Jun-07 23:58N 26°18' W 080°04'3 7.6
2018-Jun-07 23:30N 26°22' W 080°04'4 7.8
2018-Jun-07 23:00N 26°26' W 080°03'27 7.9
2018-Jun-07 19:37N 26°52' W 080°02'1 8.4
2018-Jun-07 19:30N 26°53' W 080°02'4 8.6
2018-Jun-07 19:00N 26°57' W 080°04'8 0.6
2018-Jun-07 06:37N 27°05' W 080°04'1 6.6
2018-Jun-07 06:30N 27°04' W 080°04'3 6.9
2018-Jun-07 06:00N 27°01' W 080°03'4 7.1
2018-Jun-07 05:30N 26°58' W 080°02'4 7.1
2018-Jun-07 05:00N 26°54' W 080°01'13 8.8
2018-Jun-07 03:32N 26°41' W 080°00'1 9.8
2018-Jun-07 03:24N 26°40' W 080°00'4 9.5
2018-Jun-07 02:56N 26°35' W 080°00'4 9.1
2018-Jun-07 02:30N 26°32' W 079°60'4 8.5
2018-Jun-07 01:59N 26°27' W 080°01'4 8.2
2018-Jun-07 01:30N 26°23' W 080°01'4 7.9
2018-Jun-07 00:59N 26°19' W 080°02'4 8.3
2018-Jun-07 00:30N 26°15' W 080°02'4 8.0
2018-Jun-07 00:00N 26°11' W 080°03'4 7.5
2018-Jun-06 23:30N 26°07' W 080°03'4 7.2
2018-Jun-06 23:00N 26°04' W 080°04'4 8.4
2018-Jun-06 22:30N 25°60' W 080°04'4 8.4
2018-Jun-06 22:00N 25°56' W 080°05'4 8.2
2018-Jun-06 21:30N 25°52' W 080°05'4 8.0
2018-Jun-06 21:00N 25°48' W 080°06'2 4.9
2018-Jun-06 20:30N 25°46' W 080°07'3 5.3
2018-Jun-06 20:00N 25°46' W 080°10'1 2.8
2018-Jun-06 19:30N 25°46' W 080°12'2 3.6
2018-Jun-06 19:00N 25°47' W 080°14'2 3.3
2018-Jun-06 18:30N 25°48' W 080°15'0 0.5
2018-Jun-06 18:00N 25°48' W 080°15'0 0.0
2018-Jun-06 17:30N 25°48' W 080°15'0 0.0
2018-Jun-06 17:00N 25°48' W 080°15'0 0.0
2018-Jun-06 16:30N 25°48' W 080°15'0 0.0
2018-Jun-06 16:00N 25°48' W 080°15'0 0.0
2018-Jun-06 15:30N 25°48' W 080°15'  
Track history (hours):
 
Tides and Currents Weather Stations Pressure Air Temp Water Temp Dewpoint Dewpoint Depression Visibility Wind Speed Wind Dir Waves Ship Positions

Champion

Owner: MC CULLEY MARINE SERVICES INC, FORT PIERCE, FL. More information available from US FCC via Universal Licensing System and Coast Guard Vessel Documentation Center.

Last reported at 2018-Jun-16 15:24 UTC. Time now 2018-Jun-18 02:14 UTC.
Position N 27°05' W 079°59'.

Length 20 m; draft 1.7 m.

Type: Towing. MMSI: 367005250.

Date/timePositionNaut miles runAvg speedWind from/ knotsBaromVisibWave heightAir tempDewpointWater temp
2018-Jun-16 15:24N 27°05' W 079°59'511.6
2018-Jun-16 14:58N 27°00' W 079°58'511.9
2018-Jun-16 14:30N 26°55' W 079°57'3111.8
2018-Jun-16 11:55N 26°24' W 079°58'511.8
2018-Jun-16 11:30N 26°20' W 079°58'611.8
2018-Jun-16 11:00N 26°14' W 079°58'611.6
2018-Jun-16 10:30N 26°08' W 079°59'611.7
2018-Jun-16 10:00N 26°02' W 080°01'611.9
2018-Jun-16 09:30N 25°56' W 080°01'611.9
2018-Jun-16 08:59N 25°50' W 080°02'510.2
2018-Jun-16 08:30N 25°46' W 080°04'4 8.6
2018-Jun-16 08:00N 25°42' W 080°06'5 8.9
2018-Jun-16 07:30N 25°37' W 080°07'4 8.8
2018-Jun-16 07:00N 25°33' W 080°08'  
2018-Jun-08 07:13N 25°22' W 080°12'3 8.3
2018-Jun-08 06:54N 25°25' W 080°11'3 8.1
2018-Jun-08 06:30N 25°28' W 080°10'4 8.1
2018-Jun-08 06:00N 25°31' W 080°08'4 8.2
2018-Jun-08 05:30N 25°35' W 080°07'4 8.1
2018-Jun-08 05:00N 25°39' W 080°07'4 7.8
2018-Jun-08 04:30N 25°43' W 080°06'4 7.8
2018-Jun-08 04:00N 25°47' W 080°06'4 7.8
2018-Jun-08 03:30N 25°51' W 080°06'4 7.7
2018-Jun-08 03:00N 25°55' W 080°06'4 7.9
2018-Jun-08 02:30N 25°59' W 080°05'4 7.8
2018-Jun-08 02:00N 26°03' W 080°05'4 7.9
2018-Jun-08 01:30N 26°07' W 080°05'4 7.3
2018-Jun-08 01:00N 26°10' W 080°05'4 7.4
2018-Jun-08 00:30N 26°14' W 080°04'4 7.6
2018-Jun-07 23:58N 26°18' W 080°04'3 7.6
2018-Jun-07 23:30N 26°22' W 080°04'4 7.8
2018-Jun-07 23:00N 26°26' W 080°03'27 7.9
2018-Jun-07 19:37N 26°52' W 080°02'1 8.4
2018-Jun-07 19:30N 26°53' W 080°02'4 8.6
2018-Jun-07 19:00N 26°57' W 080°04'8 0.6
2018-Jun-07 06:37N 27°05' W 080°04'1 6.6
2018-Jun-07 06:30N 27°04' W 080°04'3 6.9
2018-Jun-07 06:00N 27°01' W 080°03'4 7.1
2018-Jun-07 05:30N 26°58' W 080°02'4 7.1
2018-Jun-07 05:00N 26°54' W 080°01'13 8.8
2018-Jun-07 03:32N 26°41' W 080°00'1 9.8
2018-Jun-07 03:24N 26°40' W 080°00'4 9.5
2018-Jun-07 02:56N 26°35' W 080°00'4 9.1
2018-Jun-07 02:30N 26°32' W 079°60'4 8.5
2018-Jun-07 01:59N 26°27' W 080°01'4 8.2
2018-Jun-07 01:30N 26°23' W 080°01'4 7.9
2018-Jun-07 00:59N 26°19' W 080°02'4 8.3
2018-Jun-07 00:30N 26°15' W 080°02'4 8.0
2018-Jun-07 00:00N 26°11' W 080°03'4 7.5
2018-Jun-06 23:30N 26°07' W 080°03'4 7.2
2018-Jun-06 23:00N 26°04' W 080°04'4 8.4
2018-Jun-06 22:30N 25°60' W 080°04'4 8.4
2018-Jun-06 22:00N 25°56' W 080°05'4 8.2
2018-Jun-06 21:30N 25°52' W 080°05'4 8.0
2018-Jun-06 21:00N 25°48' W 080°06'2 4.9
2018-Jun-06 20:30N 25°46' W 080°07'3 5.3
2018-Jun-06 20:00N 25°46' W 080°10'1 2.8
2018-Jun-06 19:30N 25°46' W 080°12'2 3.6
2018-Jun-06 19:00N 25°47' W 080°14'2 3.3
2018-Jun-06 18:30N 25°48' W 080°15'0 0.5
2018-Jun-06 18:00N 25°48' W 080°15'0 0.0
2018-Jun-06 17:30N 25°48' W 080°15'0 0.0
2018-Jun-06 17:00N 25°48' W 080°15'0 0.0
2018-Jun-06 16:30N 25°48' W 080°15'0 0.0
2018-Jun-06 16:00N 25°48' W 080°15'0 0.0
2018-Jun-06 15:30N 25°48' W 080°15'  

Dump ship's entire track history